sensor_id;sensor_type;location;lat;lon;timestamp;P1;durP1;ratioP1;P2;durP2;ratioP2
32788;SDS011;19141;48.980;8.410;2023-04-23T04:22:33;8.02;;;3.83;;
32788;SDS011;19141;48.980;8.410;2023-04-23T04:24:58;7.40;;;4.88;;
32788;SDS011;19141;48.980;8.410;2023-04-23T04:27:24;10.43;;;4.45;;
32788;SDS011;19141;48.980;8.410;2023-04-23T04:29:49;8.48;;;5.47;;
32788;SDS011;19141;48.980;8.410;2023-04-23T04:32:16;12.48;;;5.35;;
32788;SDS011;19141;48.980;8.410;2023-04-23T04:34:41;8.75;;;5.00;;
32788;SDS011;19141;48.980;8.410;2023-04-23T04:37:06;13.55;;;6.00;;
32788;SDS011;19141;48.980;8.410;2023-04-23T04:39:34;13.07;;;6.47;;
32788;SDS011;19141;48.980;8.410;2023-04-23T04:41:59;11.65;;;5.70;;
32788;SDS011;19141;48.980;8.410;2023-04-23T04:44:27;11.93;;;5.30;;
32788;SDS011;19141;48.980;8.410;2023-04-23T04:46:52;8.88;;;4.50;;
32788;SDS011;19141;48.980;8.410;2023-04-23T04:49:18;9.50;;;4.70;;
32788;SDS011;19141;48.980;8.410;2023-04-23T04:51:43;13.70;;;5.50;;
32788;SDS011;19141;48.980;8.410;2023-04-23T04:54:09;9.85;;;5.05;;
32788;SDS011;19141;48.980;8.410;2023-04-23T04:56:34;8.48;;;4.93;;
32788;SDS011;19141;48.980;8.410;2023-04-23T04:59:00;7.07;;;4.15;;
32788;SDS011;19141;48.980;8.410;2023-04-23T05:01:26;9.02;;;5.20;;
32788;SDS011;19141;48.980;8.410;2023-04-23T05:03:53;8.80;;;4.55;;
32788;SDS011;19141;48.980;8.410;2023-04-23T05:06:19;9.77;;;4.82;;
32788;SDS011;19141;48.980;8.410;2023-04-23T05:08:44;9.60;;;4.93;;
32788;SDS011;19141;48.980;8.410;2023-04-23T05:11:15;8.25;;;4.88;;
32788;SDS011;19141;48.980;8.410;2023-04-23T05:13:45;9.75;;;4.45;;
32788;SDS011;19141;48.980;8.410;2023-04-23T05:16:12;9.93;;;4.82;;
32788;SDS011;19141;48.980;8.410;2023-04-23T05:18:38;10.07;;;4.82;;
32788;SDS011;19141;48.980;8.410;2023-04-23T05:21:03;8.77;;;5.20;;
32788;SDS011;19141;48.980;8.410;2023-04-23T05:23:30;7.13;;;4.43;;
32788;SDS011;19141;48.980;8.410;2023-04-23T05:25:55;9.48;;;5.70;;
32788;SDS011;19141;48.980;8.410;2023-04-23T05:28:22;9.93;;;5.60;;
32788;SDS011;19141;48.980;8.410;2023-04-23T05:30:48;12.95;;;6.25;;
32788;SDS011;19141;48.980;8.410;2023-04-23T05:33:14;11.30;;;5.25;;
32788;SDS011;19141;48.980;8.410;2023-04-23T05:35:40;12.20;;;5.63;;
32788;SDS011;19141;48.980;8.410;2023-04-23T05:38:05;10.02;;;5.18;;
32788;SDS011;19141;48.980;8.410;2023-04-23T05:40:31;11.10;;;5.03;;
32788;SDS011;19141;48.980;8.410;2023-04-23T05:42:57;13.80;;;5.82;;
32788;SDS011;19141;48.980;8.410;2023-04-23T05:45:22;11.20;;;5.25;;
32788;SDS011;19141;48.980;8.410;2023-04-23T05:47:48;13.48;;;5.32;;
32788;SDS011;19141;48.980;8.410;2023-04-23T05:50:13;10.85;;;5.10;;
32788;SDS011;19141;48.980;8.410;2023-04-23T05:52:38;8.23;;;5.53;;
32788;SDS011;19141;48.980;8.410;2023-04-23T05:55:04;9.88;;;5.28;;
32788;SDS011;19141;48.980;8.410;2023-04-23T05:59:57;10.32;;;4.80;;
32788;SDS011;19141;48.980;8.410;2023-04-23T06:02:22;9.52;;;5.20;;
32788;SDS011;19141;48.980;8.410;2023-04-23T06:04:48;12.85;;;5.05;;
32788;SDS011;19141;48.980;8.410;2023-04-23T06:07:13;10.48;;;4.43;;
32788;SDS011;19141;48.980;8.410;2023-04-23T06:09:39;9.70;;;4.93;;
32788;SDS011;19141;48.980;8.410;2023-04-23T06:12:05;9.55;;;4.78;;
32788;SDS011;19141;48.980;8.410;2023-04-23T06:14:30;10.45;;;4.80;;
32788;SDS011;19141;48.980;8.410;2023-04-23T06:16:56;7.15;;;3.85;;
32788;SDS011;19141;48.980;8.410;2023-04-23T06:19:21;8.05;;;4.63;;
32788;SDS011;19141;48.980;8.410;2023-04-23T06:21:50;8.15;;;4.40;;
32788;SDS011;19141;48.980;8.410;2023-04-23T06:24:16;9.85;;;4.50;;
32788;SDS011;19141;48.980;8.410;2023-04-23T06:26:41;8.48;;;4.30;;
32788;SDS011;19141;48.980;8.410;2023-04-23T06:29:14;9.10;;;4.35;;
32788;SDS011;19141;48.980;8.410;2023-04-23T06:32:01;8.80;;;3.83;;
32788;SDS011;19141;48.980;8.410;2023-04-23T06:34:27;7.30;;;4.15;;
32788;SDS011;19141;48.980;8.410;2023-04-23T06:36:53;7.00;;;3.65;;
32788;SDS011;19141;48.980;8.410;2023-04-23T06:39:18;6.70;;;3.22;;
32788;SDS011;19141;48.980;8.410;2023-04-23T06:41:44;6.50;;;3.10;;
32788;SDS011;19141;48.980;8.410;2023-04-23T06:44:20;5.65;;;3.22;;
32788;SDS011;19141;48.980;8.410;2023-04-23T06:46:49;7.88;;;3.20;;
32788;SDS011;19141;48.980;8.410;2023-04-23T06:49:15;5.18;;;3.13;;
32788;SDS011;19141;48.980;8.410;2023-04-23T06:51:40;8.00;;;3.03;;
32788;SDS011;19141;48.980;8.410;2023-04-23T06:54:06;5.93;;;2.95;;
32788;SDS011;19141;48.980;8.410;2023-04-23T06:56:31;5.43;;;2.58;;
32788;SDS011;19141;48.980;8.410;2023-04-23T06:58:56;4.05;;;2.70;;
32788;SDS011;19141;48.980;8.410;2023-04-23T07:01:22;3.72;;;2.50;;
32788;SDS011;19141;48.980;8.410;2023-04-23T07:03:47;4.35;;;2.38;;
32788;SDS011;19141;48.980;8.410;2023-04-23T07:08:41;4.60;;;2.40;;
32788;SDS011;19141;48.980;8.410;2023-04-23T07:11:09;4.65;;;2.33;;
32788;SDS011;19141;48.980;8.410;2023-04-23T07:13:34;7.78;;;2.20;;
32788;SDS011;19141;48.980;8.410;2023-04-23T07:16:00;2.60;;;2.00;;
32788;SDS011;19141;48.980;8.410;2023-04-23T07:18:25;3.80;;;2.25;;
32788;SDS011;19141;48.980;8.410;2023-04-23T07:20:51;5.15;;;1.90;;
32788;SDS011;19141;48.980;8.410;2023-04-23T07:23:16;2.33;;;1.65;;
32788;SDS011;19141;48.980;8.410;2023-04-23T07:25:42;3.22;;;1.95;;
32788;SDS011;19141;48.980;8.410;2023-04-23T07:28:07;2.38;;;1.70;;
32788;SDS011;19141;48.980;8.410;2023-04-23T07:30:33;3.67;;;1.83;;
32788;SDS011;19141;48.980;8.410;2023-04-23T07:32:58;4.40;;;2.28;;
32788;SDS011;19141;48.980;8.410;2023-04-23T07:35:23;3.45;;;2.30;;
32788;SDS011;19141;48.980;8.410;2023-04-23T07:37:50;2.13;;;1.63;;
32788;SDS011;19141;48.980;8.410;2023-04-23T07:40:19;2.60;;;2.05;;
32788;SDS011;19141;48.980;8.410;2023-04-23T07:42:46;3.53;;;1.65;;
32788;SDS011;19141;48.980;8.410;2023-04-23T07:45:12;4.20;;;1.90;;
32788;SDS011;19141;48.980;8.410;2023-04-23T07:47:37;3.20;;;1.98;;
32788;SDS011;19141;48.980;8.410;2023-04-23T07:50:02;3.00;;;1.38;;
32788;SDS011;19141;48.980;8.410;2023-04-23T07:52:28;2.35;;;1.55;;
32788;SDS011;19141;48.980;8.410;2023-04-23T07:54:53;2.45;;;1.70;;
32788;SDS011;19141;48.980;8.410;2023-04-23T07:57:20;2.75;;;1.65;;
32788;SDS011;19141;48.980;8.410;2023-04-23T07:59:45;3.20;;;1.90;;
32788;SDS011;19141;48.980;8.410;2023-04-23T08:02:10;2.10;;;1.45;;
32788;SDS011;19141;48.980;8.410;2023-04-23T08:04:36;2.55;;;1.67;;
32788;SDS011;19141;48.980;8.410;2023-04-23T08:07:01;2.63;;;1.55;;
32788;SDS011;19141;48.980;8.410;2023-04-23T08:09:26;3.80;;;1.33;;
32788;SDS011;19141;48.980;8.410;2023-04-23T08:11:52;3.33;;;1.80;;
32788;SDS011;19141;48.980;8.410;2023-04-23T08:14:19;2.33;;;1.30;;
32788;SDS011;19141;48.980;8.410;2023-04-23T08:16:44;3.90;;;1.30;;
32788;SDS011;19141;48.980;8.410;2023-04-23T08:19:09;2.72;;;1.80;;
32788;SDS011;19141;48.980;8.410;2023-04-23T08:21:37;2.40;;;1.60;;
32788;SDS011;19141;48.980;8.410;2023-04-23T08:24:02;2.85;;;1.42;;
32788;SDS011;19141;48.980;8.410;2023-04-23T08:26:28;2.42;;;1.60;;
32788;SDS011;19141;48.980;8.410;2023-04-23T08:28:54;2.17;;;1.48;;
32788;SDS011;19141;48.980;8.410;2023-04-23T08:31:19;1.85;;;1.20;;
32788;SDS011;19141;48.980;8.410;2023-04-23T08:33:45;2.35;;;1.63;;
32788;SDS011;19141;48.980;8.410;2023-04-23T08:36:11;2.30;;;1.50;;
32788;SDS011;19141;48.980;8.410;2023-04-23T08:38:36;2.80;;;1.52;;
32788;SDS011;19141;48.980;8.410;2023-04-23T08:41:02;2.15;;;1.50;;
32788;SDS011;19141;48.980;8.410;2023-04-23T08:43:31;2.53;;;1.35;;
32788;SDS011;19141;48.980;8.410;2023-04-23T08:46:02;3.45;;;2.25;;
32788;SDS011;19141;48.980;8.410;2023-04-23T08:48:28;2.38;;;1.40;;
32788;SDS011;19141;48.980;8.410;2023-04-23T08:50:54;1.33;;;1.23;;
32788;SDS011;19141;48.980;8.410;2023-04-23T08:53:21;2.10;;;1.73;;
32788;SDS011;19141;48.980;8.410;2023-04-23T08:55:52;1.83;;;1.40;;
32788;SDS011;19141;48.980;8.410;2023-04-23T08:58:20;4.13;;;1.58;;
32788;SDS011;19141;48.980;8.410;2023-04-23T09:00:47;2.35;;;1.55;;
32788;SDS011;19141;48.980;8.410;2023-04-23T09:05:43;2.83;;;1.95;;
32788;SDS011;19141;48.980;8.410;2023-04-23T09:08:09;2.15;;;1.50;;
32788;SDS011;19141;48.980;8.410;2023-04-23T09:10:35;3.28;;;1.50;;
32788;SDS011;19141;48.980;8.410;2023-04-23T09:13:04;2.55;;;1.45;;
32788;SDS011;19141;48.980;8.410;2023-04-23T09:15:29;1.67;;;1.33;;
32788;SDS011;19141;48.980;8.410;2023-04-23T09:17:55;4.40;;;1.75;;
32788;SDS011;19141;48.980;8.410;2023-04-23T09:20:22;2.97;;;1.40;;
32788;SDS011;19141;48.980;8.410;2023-04-23T09:22:48;4.93;;;1.67;;
32788;SDS011;19141;48.980;8.410;2023-04-23T09:25:16;1.85;;;1.50;;
32788;SDS011;19141;48.980;8.410;2023-04-23T09:27:42;1.50;;;1.13;;
32788;SDS011;19141;48.980;8.410;2023-04-23T09:30:09;2.97;;;1.50;;
32788;SDS011;19141;48.980;8.410;2023-04-23T09:32:36;2.90;;;1.30;;
32788;SDS011;19141;48.980;8.410;2023-04-23T09:35:03;2.05;;;1.08;;
32788;SDS011;19141;48.980;8.410;2023-04-23T09:37:30;3.15;;;1.85;;
32788;SDS011;19141;48.980;8.410;2023-04-23T09:40:00;2.22;;;1.48;;
32788;SDS011;19141;48.980;8.410;2023-04-23T09:42:28;1.95;;;1.20;;
32788;SDS011;19141;48.980;8.410;2023-04-23T09:45:01;1.95;;;1.38;;
32788;SDS011;19141;48.980;8.410;2023-04-23T09:47:37;2.08;;;1.25;;
32788;SDS011;19141;48.980;8.410;2023-04-23T09:50:03;4.85;;;1.80;;
32788;SDS011;19141;48.980;8.410;2023-04-23T09:52:30;1.63;;;1.40;;
32788;SDS011;19141;48.980;8.410;2023-04-23T09:54:57;2.75;;;1.88;;
32788;SDS011;19141;48.980;8.410;2023-04-23T09:57:25;2.53;;;1.40;;
32788;SDS011;19141;48.980;8.410;2023-04-23T09:59:50;2.45;;;1.20;;
32788;SDS011;19141;48.980;8.410;2023-04-23T10:02:16;2.28;;;1.50;;
32788;SDS011;19141;48.980;8.410;2023-04-23T10:04:42;1.83;;;1.10;;
32788;SDS011;19141;48.980;8.410;2023-04-23T10:07:08;4.30;;;1.55;;
32788;SDS011;19141;48.980;8.410;2023-04-23T10:09:37;1.35;;;1.10;;
32788;SDS011;19141;48.980;8.410;2023-04-23T10:12:05;1.33;;;1.20;;
32788;SDS011;19141;48.980;8.410;2023-04-23T10:14:31;1.60;;;1.00;;
32788;SDS011;19141;48.980;8.410;2023-04-23T10:16:57;2.20;;;1.00;;
32788;SDS011;19141;48.980;8.410;2023-04-23T10:19:24;1.40;;;1.00;;
32788;SDS011;19141;48.980;8.410;2023-04-23T10:21:55;1.55;;;0.90;;
32788;SDS011;19141;48.980;8.410;2023-04-23T10:24:23;1.10;;;1.00;;
32788;SDS011;19141;48.980;8.410;2023-04-23T10:26:50;1.50;;;0.90;;
32788;SDS011;19141;48.980;8.410;2023-04-23T10:29:18;2.10;;;0.88;;
32788;SDS011;19141;48.980;8.410;2023-04-23T10:31:50;3.75;;;1.42;;
32788;SDS011;19141;48.980;8.410;2023-04-23T10:34:17;1.15;;;1.02;;
32788;SDS011;19141;48.980;8.410;2023-04-23T10:36:43;1.15;;;0.80;;
32788;SDS011;19141;48.980;8.410;2023-04-23T10:39:08;1.42;;;1.00;;
32788;SDS011;19141;48.980;8.410;2023-04-23T10:41:38;1.70;;;1.13;;
32788;SDS011;19141;48.980;8.410;2023-04-23T10:44:06;1.20;;;0.90;;
32788;SDS011;19141;48.980;8.410;2023-04-23T10:46:36;1.45;;;1.13;;
32788;SDS011;19141;48.980;8.410;2023-04-23T10:49:05;1.30;;;1.20;;
32788;SDS011;19141;48.980;8.410;2023-04-23T10:51:35;1.25;;;0.93;;
32788;SDS011;19141;48.980;8.410;2023-04-23T10:54:01;2.40;;;1.00;;
32788;SDS011;19141;48.980;8.410;2023-04-23T10:56:29;5.75;;;1.80;;
32788;SDS011;19141;48.980;8.410;2023-04-23T10:58:55;1.17;;;1.05;;
32788;SDS011;19141;48.980;8.410;2023-04-23T11:01:22;3.25;;;1.75;;
32788;SDS011;19141;48.980;8.410;2023-04-23T11:03:50;2.08;;;1.40;;
32788;SDS011;19141;48.980;8.410;2023-04-23T11:07:03;3.75;;;2.63;;
32788;SDS011;19141;48.980;8.410;2023-04-23T11:09:27;1.85;;;1.50;;
32788;SDS011;19141;48.980;8.410;2023-04-23T11:11:55;1.00;;;0.88;;
32788;SDS011;19141;48.980;8.410;2023-04-23T11:14:35;1.13;;;1.02;;
32788;SDS011;19141;48.980;8.410;2023-04-23T11:17:02;1.27;;;0.80;;
32788;SDS011;19141;48.980;8.410;2023-04-23T11:19:28;1.30;;;0.88;;
32788;SDS011;19141;48.980;8.410;2023-04-23T11:24:33;1.23;;;0.90;;
32788;SDS011;19141;48.980;8.410;2023-04-23T11:27:04;1.50;;;1.27;;
32788;SDS011;19141;48.980;8.410;2023-04-23T11:29:31;1.33;;;1.00;;
32788;SDS011;19141;48.980;8.410;2023-04-23T11:31:56;5.15;;;1.10;;
32788;SDS011;19141;48.980;8.410;2023-04-23T11:34:22;3.10;;;1.30;;
32788;SDS011;19141;48.980;8.410;2023-04-23T11:36:50;1.70;;;1.00;;
32788;SDS011;19141;48.980;8.410;2023-04-23T11:39:17;2.28;;;0.98;;
32788;SDS011;19141;48.980;8.410;2023-04-23T11:41:46;1.05;;;0.63;;
32788;SDS011;19141;48.980;8.410;2023-04-23T11:44:11;1.90;;;0.90;;
32788;SDS011;19141;48.980;8.410;2023-04-23T11:46:37;1.52;;;0.80;;
32788;SDS011;19141;48.980;8.410;2023-04-23T11:49:03;1.00;;;0.90;;
32788;SDS011;19141;48.980;8.410;2023-04-23T11:51:28;1.05;;;0.85;;
32788;SDS011;19141;48.980;8.410;2023-04-23T11:53:54;0.75;;;0.75;;
32788;SDS011;19141;48.980;8.410;2023-04-23T11:56:28;0.80;;;0.70;;
32788;SDS011;19141;48.980;8.410;2023-04-23T11:58:58;0.65;;;0.50;;
32788;SDS011;19141;48.980;8.410;2023-04-23T12:01:25;0.98;;;0.65;;
32788;SDS011;19141;48.980;8.410;2023-04-23T12:03:50;0.73;;;0.60;;
32788;SDS011;19141;48.980;8.410;2023-04-23T12:06:16;1.08;;;0.70;;
32788;SDS011;19141;48.980;8.410;2023-04-23T12:08:44;0.95;;;0.70;;
32788;SDS011;19141;48.980;8.410;2023-04-23T12:11:11;0.85;;;0.70;;
32788;SDS011;19141;48.980;8.410;2023-04-23T12:13:38;0.40;;;0.40;;
32788;SDS011;19141;48.980;8.410;2023-04-23T12:16:04;0.60;;;0.60;;
32788;SDS011;19141;48.980;8.410;2023-04-23T12:18:30;1.10;;;0.80;;
32788;SDS011;19141;48.980;8.410;2023-04-23T12:21:12;0.45;;;0.45;;
32788;SDS011;19141;48.980;8.410;2023-04-23T12:23:39;0.77;;;0.60;;
32788;SDS011;19141;48.980;8.410;2023-04-23T12:26:13;0.82;;;0.60;;
32788;SDS011;19141;48.980;8.410;2023-04-23T12:31:17;2.33;;;1.58;;
32788;SDS011;19141;48.980;8.410;2023-04-23T12:33:44;4.05;;;3.08;;
32788;SDS011;19141;48.980;8.410;2023-04-23T12:36:10;1.23;;;1.00;;
32788;SDS011;19141;48.980;8.410;2023-04-23T12:38:36;1.95;;;0.82;;
32788;SDS011;19141;48.980;8.410;2023-04-23T12:41:03;1.83;;;0.77;;
32788;SDS011;19141;48.980;8.410;2023-04-23T12:43:28;2.13;;;0.60;;
32788;SDS011;19141;48.980;8.410;2023-04-23T12:45:54;0.63;;;0.57;;
32788;SDS011;19141;48.980;8.410;2023-04-23T12:48:20;0.82;;;0.80;;
32788;SDS011;19141;48.980;8.410;2023-04-23T12:50:45;1.63;;;0.90;;
32788;SDS011;19141;48.980;8.410;2023-04-23T12:53:12;3.17;;;0.80;;
32788;SDS011;19141;48.980;8.410;2023-04-23T12:55:37;0.80;;;0.80;;
32788;SDS011;19141;48.980;8.410;2023-04-23T12:58:08;0.70;;;0.60;;
32788;SDS011;19141;48.980;8.410;2023-04-23T13:00:33;0.85;;;0.63;;
32788;SDS011;19141;48.980;8.410;2023-04-23T13:03:00;0.98;;;0.60;;
32788;SDS011;19141;48.980;8.410;2023-04-23T13:05:26;1.73;;;0.90;;
32788;SDS011;19141;48.980;8.410;2023-04-23T13:07:51;1.02;;;0.70;;
32788;SDS011;19141;48.980;8.410;2023-04-23T13:10:17;1.38;;;1.00;;
32788;SDS011;19141;48.980;8.410;2023-04-23T13:12:43;1.23;;;0.70;;
32788;SDS011;19141;48.980;8.410;2023-04-23T13:15:08;0.68;;;0.60;;
32788;SDS011;19141;48.980;8.410;2023-04-23T13:17:36;1.85;;;0.90;;
32788;SDS011;19141;48.980;8.410;2023-04-23T13:20:02;0.85;;;0.70;;
32788;SDS011;19141;48.980;8.410;2023-04-23T13:22:28;0.68;;;0.57;;
32788;SDS011;19141;48.980;8.410;2023-04-23T13:24:54;0.80;;;0.70;;
32788;SDS011;19141;48.980;8.410;2023-04-23T13:27:23;1.13;;;0.65;;
32788;SDS011;19141;48.980;8.410;2023-04-23T13:29:50;0.40;;;0.40;;
32788;SDS011;19141;48.980;8.410;2023-04-23T13:32:15;0.60;;;0.35;;
32788;SDS011;19141;48.980;8.410;2023-04-23T13:34:41;0.45;;;0.40;;
32788;SDS011;19141;48.980;8.410;2023-04-23T13:37:07;0.68;;;0.30;;
32788;SDS011;19141;48.980;8.410;2023-04-23T13:39:33;0.73;;;0.30;;
32788;SDS011;19141;48.980;8.410;2023-04-23T13:41:59;0.52;;;0.40;;
32788;SDS011;19141;48.980;8.410;2023-04-23T13:44:26;1.13;;;0.52;;
32788;SDS011;19141;48.980;8.410;2023-04-23T13:46:51;0.60;;;0.55;;
32788;SDS011;19141;48.980;8.410;2023-04-23T13:49:16;0.93;;;0.70;;
32788;SDS011;19141;48.980;8.410;2023-04-23T13:51:42;0.43;;;0.43;;
32788;SDS011;19141;48.980;8.410;2023-04-23T13:54:07;0.90;;;0.50;;
32788;SDS011;19141;48.980;8.410;2023-04-23T13:56:32;0.93;;;0.80;;
32788;SDS011;19141;48.980;8.410;2023-04-23T13:58:58;0.52;;;0.50;;
32788;SDS011;19141;48.980;8.410;2023-04-23T14:01:28;0.80;;;0.60;;
32788;SDS011;19141;48.980;8.410;2023-04-23T14:03:53;0.80;;;0.30;;
32788;SDS011;19141;48.980;8.410;2023-04-23T14:06:20;0.57;;;0.55;;
32788;SDS011;19141;48.980;8.410;2023-04-23T14:08:45;0.73;;;0.60;;
32788;SDS011;19141;48.980;8.410;2023-04-23T14:11:10;0.55;;;0.52;;
32788;SDS011;19141;48.980;8.410;2023-04-23T14:13:36;0.88;;;0.60;;
32788;SDS011;19141;48.980;8.410;2023-04-23T14:16:01;0.45;;;0.45;;
32788;SDS011;19141;48.980;8.410;2023-04-23T14:18:27;0.20;;;0.20;;
32788;SDS011;19141;48.980;8.410;2023-04-23T14:20:52;0.52;;;0.40;;
32788;SDS011;19141;48.980;8.410;2023-04-23T14:25:46;1.35;;;0.80;;
32788;SDS011;19141;48.980;8.410;2023-04-23T14:31:03;0.63;;;0.35;;
32788;SDS011;19141;48.980;8.410;2023-04-23T14:33:28;0.50;;;0.32;;
32788;SDS011;19141;48.980;8.410;2023-04-23T14:35:54;0.40;;;0.40;;
32788;SDS011;19141;48.980;8.410;2023-04-23T14:38:19;0.43;;;0.40;;
32788;SDS011;19141;48.980;8.410;2023-04-23T14:40:45;1.55;;;0.50;;
32788;SDS011;19141;48.980;8.410;2023-04-23T14:43:10;2.03;;;0.70;;
32788;SDS011;19141;48.980;8.410;2023-04-23T14:45:36;0.75;;;0.50;;
32788;SDS011;19141;48.980;8.410;2023-04-23T14:48:01;0.40;;;0.30;;
32788;SDS011;19141;48.980;8.410;2023-04-23T14:50:27;1.08;;;0.50;;
32788;SDS011;19141;48.980;8.410;2023-04-23T14:52:52;0.63;;;0.50;;
32788;SDS011;19141;48.980;8.410;2023-04-23T14:55:20;0.38;;;0.32;;
32788;SDS011;19141;48.980;8.410;2023-04-23T15:00:11;1.33;;;0.70;;
32788;SDS011;19141;48.980;8.410;2023-04-23T15:02:41;0.63;;;0.47;;
32788;SDS011;19141;48.980;8.410;2023-04-23T15:05:10;0.70;;;0.55;;
32788;SDS011;19141;48.980;8.410;2023-04-23T15:07:36;1.08;;;0.50;;
32788;SDS011;19141;48.980;8.410;2023-04-23T15:10:02;0.60;;;0.45;;
32788;SDS011;19141;48.980;8.410;2023-04-23T15:15:04;1.15;;;0.80;;
32788;SDS011;19141;48.980;8.410;2023-04-23T15:17:38;1.38;;;0.30;;
32788;SDS011;19141;48.980;8.410;2023-04-23T15:20:04;1.00;;;0.65;;
32788;SDS011;19141;48.980;8.410;2023-04-23T15:22:30;1.48;;;0.60;;
32788;SDS011;19141;48.980;8.410;2023-04-23T15:24:55;0.75;;;0.63;;
32788;SDS011;19141;48.980;8.410;2023-04-23T15:27:20;0.40;;;0.40;;
32788;SDS011;19141;48.980;8.410;2023-04-23T15:29:46;0.50;;;0.47;;
32788;SDS011;19141;48.980;8.410;2023-04-23T15:32:12;0.90;;;0.40;;
32788;SDS011;19141;48.980;8.410;2023-04-23T15:34:37;0.52;;;0.40;;
32788;SDS011;19141;48.980;8.410;2023-04-23T15:37:03;0.57;;;0.45;;
32788;SDS011;19141;48.980;8.410;2023-04-23T15:39:28;0.68;;;0.40;;
32788;SDS011;19141;48.980;8.410;2023-04-23T15:41:54;0.75;;;0.40;;
32788;SDS011;19141;48.980;8.410;2023-04-23T15:44:20;0.40;;;0.30;;
32788;SDS011;19141;48.980;8.410;2023-04-23T15:46:46;0.80;;;0.47;;
32788;SDS011;19141;48.980;8.410;2023-04-23T15:49:11;0.77;;;0.40;;
32788;SDS011;19141;48.980;8.410;2023-04-23T15:51:37;0.75;;;0.50;;
32788;SDS011;19141;48.980;8.410;2023-04-23T15:54:03;0.40;;;0.40;;
32788;SDS011;19141;48.980;8.410;2023-04-23T15:56:32;1.13;;;0.52;;
32788;SDS011;19141;48.980;8.410;2023-04-23T15:58:57;1.38;;;0.60;;
32788;SDS011;19141;48.980;8.410;2023-04-23T16:01:23;1.33;;;0.60;;
32788;SDS011;19141;48.980;8.410;2023-04-23T16:03:48;1.20;;;0.47;;
32788;SDS011;19141;48.980;8.410;2023-04-23T16:06:14;1.00;;;0.60;;
32788;SDS011;19141;48.980;8.410;2023-04-23T16:08:39;0.80;;;0.80;;
32788;SDS011;19141;48.980;8.410;2023-04-23T16:11:04;0.80;;;0.68;;
32788;SDS011;19141;48.980;8.410;2023-04-23T16:13:33;1.77;;;0.98;;
32788;SDS011;19141;48.980;8.410;2023-04-23T16:15:59;1.58;;;0.90;;
32788;SDS011;19141;48.980;8.410;2023-04-23T16:18:24;1.27;;;0.90;;
32788;SDS011;19141;48.980;8.410;2023-04-23T16:20:50;0.98;;;0.80;;
32788;SDS011;19141;48.980;8.410;2023-04-23T16:23:15;1.52;;;0.65;;
32788;SDS011;19141;48.980;8.410;2023-04-23T16:25:41;1.00;;;0.77;;
32788;SDS011;19141;48.980;8.410;2023-04-23T16:28:07;2.30;;;0.73;;
32788;SDS011;19141;48.980;8.410;2023-04-23T16:30:33;0.82;;;0.75;;
32788;SDS011;19141;48.980;8.410;2023-04-23T16:32:58;0.55;;;0.50;;
32788;SDS011;19141;48.980;8.410;2023-04-23T16:35:24;1.08;;;0.60;;
32788;SDS011;19141;48.980;8.410;2023-04-23T16:37:49;1.42;;;0.88;;
32788;SDS011;19141;48.980;8.410;2023-04-23T16:40:15;0.82;;;0.75;;
32788;SDS011;19141;48.980;8.410;2023-04-23T16:42:41;0.63;;;0.57;;
32788;SDS011;19141;48.980;8.410;2023-04-23T16:45:07;2.67;;;0.73;;
32788;SDS011;19141;48.980;8.410;2023-04-23T16:47:32;0.60;;;0.60;;
32788;SDS011;19141;48.980;8.410;2023-04-23T16:49:58;0.77;;;0.60;;
32788;SDS011;19141;48.980;8.410;2023-04-23T16:52:23;1.67;;;1.05;;
32788;SDS011;19141;48.980;8.410;2023-04-23T16:54:49;1.15;;;1.05;;
32788;SDS011;19141;48.980;8.410;2023-04-23T16:57:15;1.30;;;0.60;;
32788;SDS011;19141;48.980;8.410;2023-04-23T16:59:41;1.58;;;0.73;;
32788;SDS011;19141;48.980;8.410;2023-04-23T17:02:06;1.15;;;0.75;;
32788;SDS011;19141;48.980;8.410;2023-04-23T17:04:32;0.88;;;0.80;;
32788;SDS011;19141;48.980;8.410;2023-04-23T17:06:57;1.27;;;0.85;;
32788;SDS011;19141;48.980;8.410;2023-04-23T17:09:23;1.30;;;1.10;;
32788;SDS011;19141;48.980;8.410;2023-04-23T17:11:48;1.88;;;0.90;;
32788;SDS011;19141;48.980;8.410;2023-04-23T17:14:14;1.38;;;0.90;;
32788;SDS011;19141;48.980;8.410;2023-04-23T17:16:39;1.27;;;0.80;;
32788;SDS011;19141;48.980;8.410;2023-04-23T17:19:05;2.92;;;1.58;;
32788;SDS011;19141;48.980;8.410;2023-04-23T17:21:31;1.40;;;0.85;;
32788;SDS011;19141;48.980;8.410;2023-04-23T17:23:56;2.30;;;1.42;;
32788;SDS011;19141;48.980;8.410;2023-04-23T17:26:22;1.73;;;1.13;;
32788;SDS011;19141;48.980;8.410;2023-04-23T17:28:47;2.53;;;1.45;;
32788;SDS011;19141;48.980;8.410;2023-04-23T17:31:13;1.33;;;1.02;;
32788;SDS011;19141;48.980;8.410;2023-04-23T17:33:38;2.38;;;0.85;;
32788;SDS011;19141;48.980;8.410;2023-04-23T17:36:04;1.35;;;0.90;;
32788;SDS011;19141;48.980;8.410;2023-04-23T17:38:29;1.52;;;0.88;;
32788;SDS011;19141;48.980;8.410;2023-04-23T17:40:55;1.00;;;0.70;;
32788;SDS011;19141;48.980;8.410;2023-04-23T17:43:20;2.25;;;1.13;;
32788;SDS011;19141;48.980;8.410;2023-04-23T17:45:46;1.30;;;0.95;;
32788;SDS011;19141;48.980;8.410;2023-04-23T17:48:13;1.13;;;0.73;;
32788;SDS011;19141;48.980;8.410;2023-04-23T17:50:39;1.25;;;0.73;;
32788;SDS011;19141;48.980;8.410;2023-04-23T17:53:07;1.17;;;0.90;;
32788;SDS011;19141;48.980;8.410;2023-04-23T17:55:33;2.20;;;1.10;;
32788;SDS011;19141;48.980;8.410;2023-04-23T17:57:59;1.25;;;0.82;;
32788;SDS011;19141;48.980;8.410;2023-04-23T18:00:36;2.55;;;1.38;;
32788;SDS011;19141;48.980;8.410;2023-04-23T18:03:03;0.82;;;0.70;;
32788;SDS011;19141;48.980;8.410;2023-04-23T18:05:30;1.08;;;0.85;;
32788;SDS011;19141;48.980;8.410;2023-04-23T18:07:56;1.23;;;1.02;;
32788;SDS011;19141;48.980;8.410;2023-04-23T18:10:21;1.90;;;0.85;;
32788;SDS011;19141;48.980;8.410;2023-04-23T18:12:47;0.90;;;0.90;;
32788;SDS011;19141;48.980;8.410;2023-04-23T18:15:13;1.13;;;0.80;;
32788;SDS011;19141;48.980;8.410;2023-04-23T18:17:38;2.28;;;1.48;;
32788;SDS011;19141;48.980;8.410;2023-04-23T18:20:04;1.60;;;1.17;;
32788;SDS011;19141;48.980;8.410;2023-04-23T18:22:33;1.25;;;1.02;;
32788;SDS011;19141;48.980;8.410;2023-04-23T18:24:59;1.23;;;0.70;;
32788;SDS011;19141;48.980;8.410;2023-04-23T18:27:25;0.90;;;0.75;;
32788;SDS011;19141;48.980;8.410;2023-04-23T18:29:50;1.90;;;1.30;;
32788;SDS011;19141;48.980;8.410;2023-04-23T18:32:16;1.52;;;1.00;;
32788;SDS011;19141;48.980;8.410;2023-04-23T18:34:41;2.00;;;1.10;;
32788;SDS011;19141;48.980;8.410;2023-04-23T18:37:10;1.75;;;0.95;;
32788;SDS011;19141;48.980;8.410;2023-04-23T18:44:47;1.45;;;1.10;;
32788;SDS011;19141;48.980;8.410;2023-04-23T18:47:14;1.92;;;1.50;;
32788;SDS011;19141;48.980;8.410;2023-04-23T18:49:43;1.30;;;0.88;;
32788;SDS011;19141;48.980;8.410;2023-04-23T18:52:10;0.75;;;0.65;;
32788;SDS011;19141;48.980;8.410;2023-04-23T18:54:35;1.90;;;0.98;;
32788;SDS011;19141;48.980;8.410;2023-04-23T18:57:01;0.98;;;0.88;;
32788;SDS011;19141;48.980;8.410;2023-04-23T18:59:27;1.20;;;0.70;;
32788;SDS011;19141;48.980;8.410;2023-04-23T19:01:52;1.75;;;1.33;;
32788;SDS011;19141;48.980;8.410;2023-04-23T19:04:19;1.85;;;1.10;;
32788;SDS011;19141;48.980;8.410;2023-04-23T19:06:45;1.75;;;1.25;;
32788;SDS011;19141;48.980;8.410;2023-04-23T19:09:10;1.90;;;1.27;;
32788;SDS011;19141;48.980;8.410;2023-04-23T19:11:36;2.63;;;1.42;;
32788;SDS011;19141;48.980;8.410;2023-04-23T19:14:05;2.50;;;1.40;;
32788;SDS011;19141;48.980;8.410;2023-04-23T19:16:31;2.85;;;1.67;;
32788;SDS011;19141;48.980;8.410;2023-04-23T19:18:56;2.42;;;1.77;;
32788;SDS011;19141;48.980;8.410;2023-04-23T19:21:22;2.35;;;1.30;;
32788;SDS011;19141;48.980;8.410;2023-04-23T19:23:48;3.30;;;1.38;;
32788;SDS011;19141;48.980;8.410;2023-04-23T19:26:15;3.53;;;1.83;;
32788;SDS011;19141;48.980;8.410;2023-04-23T19:28:41;2.58;;;1.33;;
32788;SDS011;19141;48.980;8.410;2023-04-23T19:31:06;2.15;;;1.15;;
32788;SDS011;19141;48.980;8.410;2023-04-23T19:33:32;2.83;;;1.60;;